Main page
METAR-TAF:

METAR-TAF

Airports :

Bologna Guglielmo Marconi Airport

Bologna, Italy

latitude: 44-32N, longitude: 011-18E, elevation: 36 m

Current weather observation

The report was made 36 minutes ago, at 23:20 UTC
Wind 2 kt from variable directions
Temperature 21°C
Humidity 94%
Pressure 1011 hPa
Visibility 10 km or more
no clouds below 1500 m and no cumulonimbus

METAR: LIPE 202320Z VRB02KT CAVOK 21/20 Q1011

Time: 01:56 (23:56 UTC)

Forecast

The report was made 56 minutes ago, at 23:00 UTC
Forecast valid from 21 at 00 UTC to 21 at 24 UTC
Wind 5 kt from variable directions
Visibility 10 km or more
Scattered clouds at a height of 5000 ft
Temporary
from 21 at 12 UTC to 21 at 24 UTC
Visibility: 4000 m
thunderstorm, rain

TAF: LIPE 202300Z 2100/2124 VRB05KT 9999 SCT050 TEMPO 2112/2124 4000 TSRA

Weather observations and forecasts of more than 4000 airports (METAR and TAF reports).

The available stations are represented by yellow and red dots on the map.

Hover mouse over dot to see the name of the station.

Then click to see weather observations and forecasts.

To change the map : click on the green buttons with a black cross to zoom in, on the green button with a dash to zoom out, or on the green arrows for adjacent maps.


METAR-TAF: